createdAt,value
2017-10-18T00:00:36.344Z,0
2017-10-18T00:01:16.970Z,0
2017-10-18T00:01:57.454Z,0
2017-10-18T00:02:37.954Z,0
2017-10-18T00:03:18.438Z,0
2017-10-18T00:03:58.970Z,0
2017-10-18T00:04:39.441Z,0
2017-10-18T00:05:19.955Z,0
2017-10-18T00:06:00.445Z,0
2017-10-18T00:06:41.043Z,0
2017-10-18T00:07:21.536Z,0
2017-10-18T00:08:02.096Z,0
2017-10-18T00:08:42.627Z,0
2017-10-18T00:09:23.100Z,0
2017-10-18T00:10:03.594Z,0
2017-10-18T00:10:44.076Z,0
2017-10-18T00:11:24.667Z,0
2017-10-18T00:12:05.213Z,0
2017-10-18T00:12:45.715Z,0
2017-10-18T00:13:26.216Z,0
2017-10-18T00:14:06.712Z,0
2017-10-18T00:14:47.193Z,0
2017-10-18T00:15:27.722Z,0
2017-10-18T00:16:08.199Z,0
2017-10-18T00:16:48.706Z,0
2017-10-18T00:17:29.192Z,0
2017-10-18T00:18:09.698Z,0
2017-10-18T00:18:50.178Z,0
2017-10-18T00:19:30.702Z,0
2017-10-18T00:20:11.161Z,0
2017-10-18T00:20:51.688Z,0
2017-10-18T00:21:32.178Z,0
2017-10-18T00:22:12.664Z,0
2017-10-18T00:22:53.173Z,0
2017-10-18T00:23:33.687Z,0
2017-10-18T00:24:14.146Z,0
2017-10-18T00:24:54.624Z,0
2017-10-18T00:25:35.109Z,0
2017-10-18T00:26:15.634Z,0
2017-10-18T00:26:56.200Z,0
2017-10-18T00:27:36.654Z,0
2017-10-18T00:28:17.204Z,0
2017-10-18T00:28:57.719Z,0
2017-10-18T00:29:38.324Z,0
2017-10-18T00:30:18.813Z,0
2017-10-18T00:30:59.310Z,0
2017-10-18T00:31:39.843Z,0
2017-10-18T00:32:20.329Z,0
2017-10-18T00:33:02.437Z,0
2017-10-18T00:33:42.905Z,0
2017-10-18T00:34:23.415Z,0
2017-10-18T00:35:03.904Z,0
2017-10-18T00:35:44.404Z,0
2017-10-18T00:36:24.925Z,0
2017-10-18T00:37:05.406Z,0
2017-10-18T00:37:45.937Z,0
2017-10-18T00:38:26.450Z,0
2017-10-18T00:39:06.946Z,0
2017-10-18T00:39:47.456Z,0
2017-10-18T00:40:28.019Z,0
2017-10-18T00:41:08.448Z,0
2017-10-18T00:41:48.933Z,0
2017-10-18T00:42:29.449Z,0
2017-10-18T00:43:09.921Z,0
2017-10-18T00:43:50.452Z,0
2017-10-18T00:44:30.958Z,0
2017-10-18T00:45:11.405Z,0
2017-10-18T00:45:52.011Z,0
2017-10-18T00:46:32.494Z,0
2017-10-18T00:47:13.832Z,0
2017-10-18T00:47:54.375Z,0
2017-10-18T00:48:34.854Z,0
2017-10-18T00:49:15.373Z,0
2017-10-18T00:49:55.900Z,0
2017-10-18T00:50:36.404Z,0
2017-10-18T00:51:17.782Z,0
2017-10-18T00:51:58.389Z,0
2017-10-18T00:52:38.850Z,0
2017-10-18T00:53:19.390Z,0
2017-10-18T00:53:59.940Z,0
2017-10-18T00:54:40.469Z,0
2017-10-18T00:55:20.964Z,0
2017-10-18T00:56:01.483Z,0
2017-10-18T00:56:42.571Z,0
2017-10-18T00:57:23.124Z,0
2017-10-18T00:58:03.681Z,0
2017-10-18T00:58:44.153Z,0
2017-10-18T00:59:24.634Z,0
2017-10-18T01:00:05.126Z,0
2017-10-18T01:00:45.659Z,0
2017-10-18T01:01:26.171Z,0
2017-10-18T01:02:06.683Z,0
2017-10-18T01:02:47.128Z,0
2017-10-18T01:03:27.625Z,0
2017-10-18T01:04:08.122Z,0
2017-10-18T01:04:48.792Z,0
2017-10-18T01:05:29.305Z,0
2017-10-18T01:06:09.842Z,0
2017-10-18T01:06:50.336Z,0
2017-10-18T01:07:30.909Z,0
2017-10-18T01:08:11.449Z,0
2017-10-18T01:08:51.942Z,0
2017-10-18T01:09:32.520Z,0
2017-10-18T01:10:13.042Z,0
2017-10-18T01:10:53.526Z,0
2017-10-18T01:11:34.046Z,0
2017-10-18T01:12:14.534Z,0
2017-10-18T01:12:55.098Z,0
2017-10-18T01:13:37.161Z,0
2017-10-18T01:14:17.639Z,0
2017-10-18T01:14:58.173Z,0
2017-10-18T01:15:38.608Z,0
2017-10-18T01:16:19.305Z,0
2017-10-18T01:16:59.811Z,0
2017-10-18T01:17:40.381Z,0
2017-10-18T01:18:20.876Z,0
2017-10-18T01:19:01.357Z,0
2017-10-18T01:19:41.853Z,0
2017-10-18T01:20:22.344Z,0
2017-10-18T01:21:02.865Z,0
2017-10-18T01:21:43.394Z,0
2017-10-18T01:22:23.926Z,0
2017-10-18T01:23:04.536Z,0
2017-10-18T01:23:45.093Z,0
2017-10-18T01:24:25.635Z,0
2017-10-18T01:25:06.154Z,0
2017-10-18T01:25:46.684Z,0
2017-10-18T01:26:27.232Z,0
2017-10-18T01:27:07.783Z,0
2017-10-18T01:27:48.294Z,0
2017-10-18T01:28:28.799Z,0
2017-10-18T01:29:09.301Z,0
2017-10-18T01:29:49.776Z,0
2017-10-18T01:30:30.316Z,0
2017-10-18T01:31:10.768Z,0
2017-10-18T01:31:51.314Z,0
2017-10-18T01:32:31.790Z,0
2017-10-18T01:33:12.285Z,0
2017-10-18T01:33:52.765Z,0
2017-10-18T01:34:33.293Z,0
2017-10-18T01:35:13.805Z,0
2017-10-18T01:35:54.293Z,0
2017-10-18T01:36:34.846Z,0
2017-10-18T01:37:15.420Z,0
2017-10-18T01:37:56.866Z,0
2017-10-18T01:38:37.346Z,0
2017-10-18T01:39:17.856Z,0
2017-10-18T01:39:58.399Z,0
2017-10-18T01:40:38.856Z,0
2017-10-18T01:41:19.336Z,0
2017-10-18T01:41:59.879Z,0
2017-10-18T01:42:40.376Z,0
2017-10-18T01:43:20.999Z,0
2017-10-18T01:44:01.544Z,0
2017-10-18T01:44:42.103Z,0
2017-10-18T01:45:22.629Z,0
2017-10-18T01:46:03.104Z,0
2017-10-18T01:46:43.645Z,0
2017-10-18T01:47:24.199Z,0
2017-10-18T01:48:04.678Z,0
2017-10-18T01:48:45.212Z,0
2017-10-18T01:49:25.760Z,0
2017-10-18T01:50:06.300Z,0
2017-10-18T01:50:46.828Z,0
2017-10-18T01:51:27.359Z,0
2017-10-18T01:52:07.883Z,0
2017-10-18T01:52:48.416Z,0
2017-10-18T01:53:28.924Z,0
2017-10-18T01:54:09.414Z,0
2017-10-18T01:54:49.965Z,0
2017-10-18T01:55:30.461Z,0
2017-10-18T01:56:10.941Z,0
2017-10-18T01:56:51.453Z,0
2017-10-18T01:57:31.958Z,0
2017-10-18T01:58:12.476Z,0
2017-10-18T01:58:53.017Z,0
2017-10-18T01:59:33.698Z,0
2017-10-18T02:00:14.227Z,0
2017-10-18T02:00:54.799Z,0
2017-10-18T02:01:35.286Z,0
2017-10-18T02:02:15.776Z,0
2017-10-18T02:02:56.335Z,0
2017-10-18T02:03:36.811Z,0
2017-10-18T02:04:17.313Z,0
2017-10-18T02:04:57.811Z,0
2017-10-18T02:05:38.457Z,0
2017-10-18T02:06:19.019Z,0
2017-10-18T02:06:59.515Z,0
2017-10-18T02:07:40.570Z,0
2017-10-18T02:08:21.063Z,0
2017-10-18T02:09:01.560Z,0
2017-10-18T02:09:42.043Z,0
2017-10-18T02:10:22.513Z,0
2017-10-18T02:11:03.063Z,0
2017-10-18T02:11:43.555Z,0
2017-10-18T02:12:24.075Z,0
2017-10-18T02:13:04.595Z,0
2017-10-18T02:13:45.067Z,0
2017-10-18T02:14:25.568Z,0
2017-10-18T02:15:06.074Z,0
2017-10-18T02:15:46.578Z,0
2017-10-18T02:16:27.106Z,0
2017-10-18T02:17:07.649Z,0
2017-10-18T02:17:48.184Z,0
2017-10-18T02:18:28.703Z,0
2017-10-18T02:19:09.382Z,0
2017-10-18T02:19:49.846Z,0
2017-10-18T02:20:30.368Z,0
2017-10-18T02:21:10.823Z,0
2017-10-18T02:21:51.343Z,0
2017-10-18T02:22:31.855Z,0
2017-10-18T02:23:12.358Z,0
2017-10-18T02:23:52.895Z,0
2017-10-18T02:24:33.392Z,0
2017-10-18T02:25:13.911Z,0
2017-10-18T02:25:54.426Z,0
2017-10-18T02:26:35.768Z,0
2017-10-18T02:27:16.277Z,0
2017-10-18T02:27:56.822Z,0
2017-10-18T02:28:37.324Z,0
2017-10-18T02:29:17.812Z,0
2017-10-18T02:29:58.340Z,0
2017-10-18T02:30:38.879Z,0
2017-10-18T02:31:20.298Z,0
2017-10-18T02:32:00.779Z,0
2017-10-18T02:32:41.292Z,0
2017-10-18T02:33:21.835Z,0
2017-10-18T02:34:02.385Z,0
2017-10-18T02:34:42.943Z,0
2017-10-18T02:35:23.486Z,0
2017-10-18T02:36:04.037Z,0
2017-10-18T02:36:44.589Z,0
2017-10-18T02:37:25.142Z,0
2017-10-18T02:38:05.679Z,0
2017-10-18T02:38:46.192Z,0
2017-10-18T02:39:26.731Z,0
2017-10-18T02:40:07.274Z,0
2017-10-18T02:40:47.791Z,0
2017-10-18T02:41:28.316Z,0
2017-10-18T02:42:08.848Z,0
2017-10-18T02:42:49.384Z,0
2017-10-18T02:43:29.907Z,0
2017-10-18T02:44:10.440Z,0
2017-10-18T02:44:50.927Z,0
2017-10-18T02:45:31.433Z,0
2017-10-18T02:46:11.988Z,0
2017-10-18T02:46:52.456Z,0
2017-10-18T02:47:32.925Z,0
2017-10-18T02:48:13.422Z,0
2017-10-18T02:48:53.917Z,0
2017-10-18T02:49:34.439Z,0
2017-10-18T02:50:14.912Z,0
2017-10-18T02:50:55.406Z,0
2017-10-18T02:51:35.916Z,0
2017-10-18T02:52:16.419Z,0
2017-10-18T02:52:56.934Z,0
2017-10-18T02:53:37.452Z,0
2017-10-18T02:54:17.913Z,0
2017-10-18T02:54:58.398Z,0
2017-10-18T02:55:38.935Z,0
2017-10-18T02:56:19.563Z,0
2017-10-18T02:57:00.110Z,0
2017-10-18T02:57:40.607Z,0
2017-10-18T02:58:21.160Z,0
2017-10-18T02:59:01.707Z,0
2017-10-18T02:59:42.238Z,0
2017-10-18T03:00:22.786Z,0
2017-10-18T03:01:03.325Z,0
2017-10-18T03:01:43.857Z,0
2017-10-18T03:02:24.388Z,0
2017-10-18T03:03:04.908Z,0
2017-10-18T03:03:45.440Z,0
2017-10-18T03:04:25.980Z,0
2017-10-18T03:05:06.501Z,0
2017-10-18T03:05:47.048Z,0
2017-10-18T03:06:27.605Z,0
2017-10-18T03:07:08.126Z,0
2017-10-18T03:07:48.662Z,0
2017-10-18T03:08:29.200Z,0
2017-10-18T03:09:09.723Z,0
2017-10-18T03:09:50.203Z,0
2017-10-18T03:10:30.812Z,0
2017-10-18T03:11:11.284Z,0
2017-10-18T03:11:51.756Z,0
2017-10-18T03:12:32.290Z,0
2017-10-18T03:13:12.831Z,0
2017-10-18T03:13:53.352Z,0
2017-10-18T03:14:33.858Z,0
2017-10-18T03:15:14.341Z,0
2017-10-18T03:15:54.824Z,0
2017-10-18T03:16:35.328Z,0
2017-10-18T03:17:15.901Z,0
2017-10-18T03:17:56.349Z,0
2017-10-18T03:18:36.858Z,0
2017-10-18T03:19:17.353Z,0
2017-10-18T03:19:57.904Z,0
2017-10-18T03:20:38.452Z,0
2017-10-18T03:21:19.040Z,0
2017-10-18T03:21:59.555Z,0
2017-10-18T03:22:40.105Z,0
2017-10-18T03:23:20.639Z,0
2017-10-18T03:24:01.157Z,0
2017-10-18T03:24:41.695Z,0
2017-10-18T03:25:22.301Z,0
2017-10-18T03:26:02.771Z,0
2017-10-18T03:26:43.279Z,0
2017-10-18T03:27:23.801Z,0
2017-10-18T03:28:04.232Z,0
2017-10-18T03:28:44.715Z,0
2017-10-18T03:29:25.205Z,0
2017-10-18T03:30:05.698Z,0
2017-10-18T03:30:46.248Z,0
2017-10-18T03:31:26.804Z,0
2017-10-18T03:32:07.306Z,0
2017-10-18T03:32:47.846Z,0
2017-10-18T03:33:28.380Z,0
2017-10-18T03:34:08.913Z,0
2017-10-18T03:34:49.450Z,0
2017-10-18T03:35:29.964Z,0
2017-10-18T03:36:10.468Z,0
2017-10-18T03:36:51.023Z,0
2017-10-18T03:37:31.528Z,0
2017-10-18T03:38:12.036Z,0
2017-10-18T03:38:52.567Z,0
2017-10-18T03:39:33.102Z,0
2017-10-18T03:40:13.656Z,0
2017-10-18T03:40:54.199Z,0
2017-10-18T03:41:34.751Z,0
2017-10-18T03:42:15.288Z,0
2017-10-18T03:42:55.821Z,0
2017-10-18T03:43:36.298Z,0
2017-10-18T03:44:16.815Z,0
2017-10-18T03:44:57.293Z,0
2017-10-18T03:45:38.401Z,0
2017-10-18T03:46:18.893Z,0
2017-10-18T03:46:59.490Z,0
2017-10-18T03:47:40.037Z,0
2017-10-18T03:48:20.597Z,0
2017-10-18T03:49:01.081Z,0
2017-10-18T03:49:41.569Z,0
2017-10-18T03:50:22.099Z,0
2017-10-18T03:51:02.561Z,0
2017-10-18T03:51:43.065Z,0
2017-10-18T03:52:23.810Z,0
2017-10-18T03:53:04.335Z,0
2017-10-18T03:53:44.823Z,0
2017-10-18T03:54:25.363Z,0
2017-10-18T03:55:05.875Z,0
2017-10-18T03:55:46.318Z,0
2017-10-18T03:56:26.889Z,0
2017-10-18T03:57:07.404Z,0
2017-10-18T03:57:47.941Z,0
2017-10-18T03:58:28.468Z,0
2017-10-18T03:59:08.935Z,0
2017-10-18T03:59:49.439Z,0
2017-10-18T04:00:29.921Z,0
2017-10-18T04:01:10.426Z,0
2017-10-18T04:01:50.954Z,0
2017-10-18T04:02:31.480Z,0
2017-10-18T04:03:11.932Z,0
2017-10-18T04:03:52.495Z,0
2017-10-18T04:04:33.908Z,0
2017-10-18T04:05:14.415Z,0
2017-10-18T04:05:54.946Z,0
2017-10-18T04:06:35.451Z,0
2017-10-18T04:07:15.973Z,0
2017-10-18T04:07:56.490Z,0
2017-10-18T04:08:37.897Z,0
2017-10-18T04:09:18.405Z,0
2017-10-18T04:09:58.931Z,0
2017-10-18T04:10:39.476Z,0
2017-10-18T04:11:19.917Z,0
2017-10-18T04:12:00.419Z,0
2017-10-18T04:12:40.948Z,0
2017-10-18T04:13:21.438Z,0
2017-10-18T04:14:01.900Z,0
2017-10-18T04:14:42.463Z,0
2017-10-18T04:15:23.013Z,0
2017-10-18T04:16:03.661Z,0
2017-10-18T04:16:44.161Z,0
2017-10-18T04:17:24.659Z,0
2017-10-18T04:18:07.617Z,0
2017-10-18T04:18:48.143Z,0
2017-10-18T04:19:28.674Z,0
2017-10-18T04:20:09.222Z,0
2017-10-18T04:20:51.052Z,0
2017-10-18T04:21:32.047Z,0
2017-10-18T04:22:12.626Z,0
2017-10-18T04:22:53.236Z,0
2017-10-18T04:23:33.760Z,0
2017-10-18T04:24:14.287Z,0
2017-10-18T04:24:54.824Z,0
2017-10-18T04:25:35.366Z,0
2017-10-18T04:26:15.899Z,0
2017-10-18T04:26:56.400Z,0
2017-10-18T04:27:36.926Z,0
2017-10-18T04:28:17.435Z,0
2017-10-18T04:28:58.020Z,0
2017-10-18T04:29:38.552Z,0
2017-10-18T04:30:19.027Z,0
2017-10-18T04:30:59.567Z,0
2017-10-18T04:31:40.089Z,0
2017-10-18T04:32:20.631Z,0
2017-10-18T04:33:01.174Z,0
2017-10-18T04:33:41.758Z,0
2017-10-18T04:34:22.329Z,0
2017-10-18T04:35:02.856Z,0
2017-10-18T04:35:43.393Z,0
2017-10-18T04:36:23.920Z,0
2017-10-18T04:37:04.448Z,0
2017-10-18T04:37:44.984Z,0
2017-10-18T04:38:25.528Z,0
2017-10-18T04:39:06.048Z,0
2017-10-18T04:39:46.581Z,0
2017-10-18T04:40:27.098Z,0
2017-10-18T04:41:07.634Z,0
2017-10-18T04:41:48.208Z,0
2017-10-18T04:42:28.776Z,0
2017-10-18T04:43:09.250Z,0
2017-10-18T04:43:49.829Z,0
2017-10-18T04:44:30.346Z,0
2017-10-18T04:45:10.994Z,0
2017-10-18T04:45:51.587Z,0
2017-10-18T04:46:32.108Z,0
2017-10-18T04:47:12.683Z,0
2017-10-18T04:47:53.206Z,0
2017-10-18T04:48:33.751Z,0
2017-10-18T04:49:14.308Z,0
2017-10-18T04:49:54.852Z,0
2017-10-18T04:50:35.385Z,0
2017-10-18T04:51:15.925Z,0
2017-10-18T04:51:56.439Z,0
2017-10-18T04:52:38.908Z,0
2017-10-18T04:53:19.413Z,0
2017-10-18T04:53:59.937Z,0
2017-10-18T04:54:40.495Z,0
2017-10-18T04:55:20.963Z,0
2017-10-18T04:56:01.490Z,0
2017-10-18T04:56:41.971Z,0
2017-10-18T04:57:22.477Z,0
2017-10-18T04:58:02.987Z,0
2017-10-18T04:58:43.481Z,0
2017-10-18T04:59:23.996Z,0
2017-10-18T05:00:04.481Z,0
2017-10-18T05:00:45.005Z,0
2017-10-18T05:01:25.512Z,0
2017-10-18T05:02:06.056Z,0
2017-10-18T05:02:46.577Z,0
2017-10-18T05:03:27.155Z,0
2017-10-18T05:04:07.691Z,0
2017-10-18T05:04:48.219Z,0
2017-10-18T05:05:28.763Z,0
2017-10-18T05:06:09.315Z,0
2017-10-18T05:06:49.853Z,0
2017-10-18T05:07:30.375Z,0
2017-10-18T05:08:10.902Z,0
2017-10-18T05:08:51.384Z,0
2017-10-18T05:09:31.887Z,0
2017-10-18T05:10:12.455Z,0
2017-10-18T05:10:53.728Z,0
2017-10-18T05:11:34.287Z,0
2017-10-18T05:12:14.711Z,0
2017-10-18T05:12:55.264Z,0
2017-10-18T05:13:35.730Z,0
2017-10-18T05:14:16.256Z,0
2017-10-18T05:14:56.738Z,0
2017-10-18T05:15:37.284Z,0
2017-10-18T05:16:17.728Z,0
2017-10-18T05:16:58.226Z,0
2017-10-18T05:17:38.770Z,0
2017-10-18T05:18:19.290Z,0
2017-10-18T05:18:59.826Z,0
2017-10-18T05:19:40.355Z,0
2017-10-18T05:20:20.882Z,0
2017-10-18T05:21:01.417Z,0
2017-10-18T05:21:41.917Z,0
2017-10-18T05:22:22.458Z,0
2017-10-18T05:23:02.940Z,0
2017-10-18T05:23:43.457Z,0
2017-10-18T05:24:23.990Z,0
2017-10-18T05:25:04.526Z,0
2017-10-18T05:25:45.066Z,0
2017-10-18T05:26:25.617Z,0
2017-10-18T05:27:06.144Z,0
2017-10-18T05:27:46.677Z,0
2017-10-18T05:28:27.187Z,0
2017-10-18T05:29:07.727Z,0
2017-10-18T05:29:48.274Z,0
2017-10-18T05:30:28.797Z,0
2017-10-18T05:31:09.315Z,0
2017-10-18T05:31:49.778Z,0
2017-10-18T05:32:30.279Z,0
2017-10-18T05:33:10.828Z,0
2017-10-18T05:33:51.290Z,0
2017-10-18T05:34:31.775Z,0
2017-10-18T05:35:12.286Z,0
2017-10-18T05:35:52.815Z,4
2017-10-18T05:36:33.333Z,4
2017-10-18T05:37:13.956Z,4
2017-10-18T05:37:54.452Z,4
2017-10-18T05:38:34.943Z,4
2017-10-18T05:39:15.447Z,4
2017-10-18T05:39:56.035Z,4
2017-10-18T05:40:36.527Z,8
2017-10-18T05:41:17.006Z,4
2017-10-18T05:41:57.497Z,8
2017-10-18T05:42:37.983Z,8
2017-10-18T05:43:18.494Z,12
2017-10-18T05:43:58.992Z,12
2017-10-18T05:44:39.526Z,12
2017-10-18T05:45:20.067Z,12
2017-10-18T05:46:01.003Z,12
2017-10-18T05:46:41.786Z,16
2017-10-18T05:47:22.404Z,20
2017-10-18T05:48:02.951Z,24
2017-10-18T05:48:43.479Z,28
2017-10-18T05:49:24.009Z,24
2017-10-18T05:50:04.542Z,32
2017-10-18T05:50:45.129Z,32
2017-10-18T05:51:25.659Z,36
2017-10-18T05:52:06.194Z,36
2017-10-18T05:52:46.745Z,40
2017-10-18T05:53:27.335Z,44
2017-10-18T05:54:07.866Z,52
2017-10-18T05:54:48.398Z,56
2017-10-18T05:55:29.013Z,56
2017-10-18T05:56:09.560Z,60
2017-10-18T05:56:50.104Z,68
2017-10-18T05:57:31.158Z,68
2017-10-18T05:58:11.669Z,76
2017-10-18T05:58:52.459Z,84
2017-10-18T05:59:32.976Z,84
2017-10-18T06:00:13.514Z,88
2017-10-18T06:00:54.100Z,92
2017-10-18T06:01:34.614Z,100
2017-10-18T06:02:15.146Z,108
2017-10-18T06:02:55.822Z,112
2017-10-18T06:03:36.437Z,116
2017-10-18T06:04:16.974Z,128
2017-10-18T06:04:57.686Z,136
2017-10-18T06:05:38.396Z,144
2017-10-18T06:06:18.931Z,152
2017-10-18T06:06:59.468Z,152
2017-10-18T06:07:40.006Z,164
2017-10-18T06:08:20.547Z,184
2017-10-18T06:09:01.077Z,176
2017-10-18T06:09:41.610Z,184
2017-10-18T06:10:22.151Z,200
2017-10-18T06:11:02.689Z,208
2017-10-18T06:11:43.224Z,220
2017-10-18T06:12:23.802Z,232
2017-10-18T06:13:04.318Z,248
2017-10-18T06:13:44.854Z,248
2017-10-18T06:14:25.398Z,272
2017-10-18T06:15:05.965Z,276
2017-10-18T06:15:46.501Z,296
2017-10-18T06:16:27.013Z,300
2017-10-18T06:17:07.486Z,316
2017-10-18T06:17:48.044Z,336
2017-10-18T06:18:30.435Z,332
2017-10-18T06:19:13.585Z,356
2017-10-18T06:19:55.761Z,380
2017-10-18T06:20:36.293Z,388
2017-10-18T06:21:16.807Z,408
2017-10-18T06:21:57.323Z,436
2017-10-18T06:22:37.852Z,440
2017-10-18T06:23:18.374Z,484
2017-10-18T06:23:58.872Z,492
2017-10-18T06:24:39.465Z,476
2017-10-18T06:25:19.955Z,480
2017-10-18T06:26:00.480Z,484
2017-10-18T06:26:40.956Z,536
2017-10-18T06:27:21.455Z,584
2017-10-18T06:28:02.004Z,580
2017-10-18T06:28:42.553Z,596
2017-10-18T06:29:23.076Z,596
2017-10-18T06:30:03.616Z,648
2017-10-18T06:30:44.158Z,644
2017-10-18T06:31:24.706Z,616
2017-10-18T06:32:05.242Z,644
2017-10-18T06:32:45.823Z,640
2017-10-18T06:33:26.345Z,656
2017-10-18T06:34:06.891Z,704
2017-10-18T06:34:47.412Z,684
2017-10-18T06:35:27.961Z,712
2017-10-18T06:36:08.472Z,708
2017-10-18T06:36:49.006Z,832
2017-10-18T06:37:29.624Z,756
2017-10-18T06:38:10.228Z,776
2017-10-18T06:38:50.775Z,756
2017-10-18T06:39:31.307Z,744
2017-10-18T06:40:11.835Z,784
2017-10-18T06:40:52.368Z,844
2017-10-18T06:41:32.903Z,940
2017-10-18T06:42:13.433Z,948
2017-10-18T06:42:53.961Z,940
2017-10-18T06:43:34.499Z,1004
2017-10-18T06:44:15.024Z,1084
2017-10-18T06:44:55.560Z,1128
2017-10-18T06:45:36.084Z,1216
2017-10-18T06:46:16.618Z,1324
2017-10-18T06:46:57.171Z,1216
2017-10-18T06:47:37.709Z,1388
2017-10-18T06:48:18.308Z,1260
2017-10-18T06:48:58.843Z,1232
2017-10-18T06:49:39.380Z,1200
2017-10-18T06:50:19.917Z,1272
2017-10-18T06:51:00.448Z,1336
2017-10-18T06:51:40.982Z,1472
2017-10-18T06:52:21.516Z,1356
2017-10-18T06:53:02.050Z,1400
2017-10-18T06:53:42.598Z,1400
2017-10-18T06:54:23.138Z,1520
2017-10-18T06:55:03.672Z,1356
2017-10-18T06:55:44.210Z,1352
2017-10-18T06:56:24.743Z,1456
2017-10-18T06:57:05.284Z,1564
2017-10-18T06:57:45.821Z,1540
2017-10-18T06:58:26.345Z,1812
2017-10-18T06:59:06.879Z,1644
2017-10-18T06:59:47.420Z,1836
2017-10-18T07:00:27.954Z,1796
2017-10-18T07:01:08.479Z,2144
2017-10-18T07:01:49.017Z,2100
2017-10-18T07:02:29.548Z,1916
2017-10-18T07:03:10.072Z,1692
2017-10-18T07:03:50.607Z,1576
2017-10-18T07:04:31.166Z,1604
2017-10-18T07:05:11.787Z,1744
2017-10-18T07:05:52.364Z,1856
2017-10-18T07:06:32.899Z,1892
2017-10-18T07:07:13.441Z,2136
2017-10-18T07:07:53.988Z,2384
2017-10-18T07:08:34.532Z,2424
2017-10-18T07:09:15.064Z,2608
2017-10-18T07:09:55.605Z,2752
2017-10-18T07:10:36.132Z,2560
2017-10-18T07:11:16.677Z,2660
2017-10-18T07:11:57.199Z,2812
2017-10-18T07:12:37.736Z,2800
2017-10-18T07:13:18.274Z,3176
2017-10-18T07:13:58.801Z,3388
2017-10-18T07:14:39.336Z,3104
2017-10-18T07:15:19.858Z,3172
2017-10-18T07:16:00.399Z,3024
2017-10-18T07:16:40.922Z,3148
2017-10-18T07:17:21.460Z,3212
2017-10-18T07:18:01.997Z,3068
2017-10-18T07:18:42.508Z,3028
2017-10-18T07:19:23.045Z,3028
2017-10-18T07:20:03.566Z,3200
2017-10-18T07:20:44.148Z,3244
2017-10-18T07:21:24.671Z,3360
2017-10-18T07:22:05.204Z,3480
2017-10-18T07:22:45.745Z,3728
2017-10-18T07:23:26.262Z,3348
2017-10-18T07:24:06.852Z,3288
2017-10-18T07:24:47.369Z,3024
2017-10-18T07:25:27.890Z,3020
2017-10-18T07:26:08.417Z,3240
2017-10-18T07:26:48.954Z,3128
2017-10-18T07:27:29.506Z,3308
2017-10-18T07:28:10.050Z,3312
2017-10-18T07:28:50.599Z,3244
2017-10-18T07:29:31.122Z,3296
2017-10-18T07:30:11.666Z,3240
2017-10-18T07:30:52.200Z,3172
2017-10-18T07:31:32.725Z,3180
2017-10-18T07:32:13.266Z,3300
2017-10-18T07:32:53.805Z,3240
2017-10-18T07:33:34.338Z,3180
2017-10-18T07:34:14.871Z,3148
2017-10-18T07:34:55.395Z,3092
2017-10-18T07:35:35.953Z,3136
2017-10-18T07:36:16.485Z,2972
2017-10-18T07:36:57.032Z,2804
2017-10-18T07:37:37.526Z,2768
2017-10-18T07:38:18.055Z,2624
2017-10-18T07:38:58.589Z,2532
2017-10-18T07:39:39.119Z,2580
2017-10-18T07:40:19.658Z,2564
2017-10-18T07:41:00.197Z,2568
2017-10-18T07:41:40.726Z,2576
2017-10-18T07:42:21.276Z,2568
2017-10-18T07:43:01.791Z,2744
2017-10-18T07:43:42.325Z,2800
2017-10-18T07:44:22.833Z,2724
2017-10-18T07:45:03.382Z,2788
2017-10-18T07:45:43.919Z,2876
2017-10-18T07:46:24.456Z,2852
2017-10-18T07:47:04.984Z,2828
2017-10-18T07:47:45.524Z,2864
2017-10-18T07:48:26.049Z,2860
2017-10-18T07:49:06.579Z,2888
2017-10-18T07:49:47.114Z,2832
2017-10-18T07:50:27.650Z,2940
2017-10-18T07:51:08.185Z,2968
2017-10-18T07:51:48.720Z,2996
2017-10-18T07:52:29.257Z,3012
2017-10-18T07:53:09.794Z,2964
2017-10-18T07:53:50.338Z,2904
2017-10-18T07:54:30.880Z,2920
2017-10-18T07:55:11.514Z,2876
2017-10-18T07:55:52.043Z,2884
2017-10-18T07:56:32.586Z,2720
2017-10-18T07:57:13.125Z,2596
2017-10-18T07:57:53.664Z,2496
2017-10-18T07:58:34.204Z,2424
2017-10-18T07:59:14.803Z,2416
2017-10-18T07:59:55.333Z,2376
2017-10-18T08:00:35.876Z,2400
2017-10-18T08:01:16.393Z,2360
2017-10-18T08:01:56.931Z,2380
2017-10-18T08:02:37.454Z,2364
2017-10-18T08:03:17.990Z,2340
2017-10-18T08:03:58.518Z,2380
2017-10-18T08:04:39.047Z,2392
2017-10-18T08:05:19.575Z,2392
2017-10-18T08:06:00.132Z,2484
2017-10-18T08:06:40.652Z,2512
2017-10-18T08:07:21.186Z,2480
2017-10-18T08:08:01.731Z,2484
2017-10-18T08:08:42.278Z,2388
2017-10-18T08:09:22.810Z,2432
2017-10-18T08:10:03.355Z,2484
2017-10-18T08:10:43.902Z,2588
2017-10-18T08:11:24.449Z,2676
2017-10-18T08:12:04.978Z,2804
2017-10-18T08:12:45.511Z,2908
2017-10-18T08:13:26.041Z,3076
2017-10-18T08:14:06.585Z,3128
2017-10-18T08:14:47.126Z,3360
2017-10-18T08:15:27.673Z,3508
2017-10-18T08:16:08.194Z,3656
2017-10-18T08:16:48.737Z,3820
2017-10-18T08:17:29.273Z,3896
2017-10-18T08:18:09.811Z,3580
2017-10-18T08:18:50.349Z,3492
2017-10-18T08:19:30.893Z,3880
2017-10-18T08:20:11.489Z,4212
2017-10-18T08:20:52.031Z,4420
2017-10-18T08:21:32.565Z,4528
2017-10-18T08:22:13.128Z,4728
2017-10-18T08:22:53.667Z,4692
2017-10-18T08:23:34.195Z,4708
2017-10-18T08:24:14.732Z,4684
2017-10-18T08:24:55.263Z,4684
2017-10-18T08:25:35.801Z,4780
2017-10-18T08:26:16.344Z,4888
2017-10-18T08:26:56.932Z,4868
2017-10-18T08:27:37.467Z,4980
2017-10-18T08:28:18.006Z,4996
2017-10-18T08:28:58.535Z,5048
2017-10-18T08:29:39.069Z,4976
2017-10-18T08:30:19.612Z,4952
2017-10-18T08:31:00.160Z,4852
2017-10-18T08:31:40.695Z,4628
2017-10-18T08:32:21.234Z,4268
2017-10-18T08:33:01.775Z,4064
2017-10-18T08:33:42.310Z,3924
2017-10-18T08:34:22.842Z,4020
2017-10-18T08:35:03.381Z,4080
2017-10-18T08:35:43.915Z,4088
2017-10-18T08:36:24.460Z,4088
2017-10-18T08:37:04.994Z,4116
2017-10-18T08:37:45.551Z,4272
2017-10-18T08:38:26.089Z,4440
2017-10-18T08:39:06.627Z,4436
2017-10-18T08:39:47.168Z,4420
2017-10-18T08:40:27.706Z,4476
2017-10-18T08:41:08.239Z,4364
2017-10-18T08:41:48.777Z,4336
2017-10-18T08:42:29.314Z,4268
2017-10-18T08:43:09.854Z,4208
2017-10-18T08:43:50.391Z,4148
2017-10-18T08:44:30.931Z,4092
2017-10-18T08:45:11.470Z,4128
2017-10-18T08:45:52.013Z,4104
2017-10-18T08:46:32.551Z,4248
2017-10-18T08:47:13.092Z,4180
2017-10-18T08:47:53.634Z,4332
2017-10-18T08:48:34.172Z,4544
2017-10-18T08:49:14.713Z,5004
2017-10-18T08:49:55.251Z,5660
2017-10-18T08:50:35.787Z,6936
2017-10-18T08:51:16.331Z,12380
2017-10-18T08:51:56.869Z,17216
2017-10-18T08:52:37.438Z,18336
2017-10-18T08:53:17.948Z,18912
2017-10-18T08:53:58.519Z,15860
2017-10-18T08:54:39.057Z,20864
2017-10-18T08:55:19.599Z,23264
2017-10-18T08:56:00.140Z,22816
2017-10-18T08:56:40.680Z,21536
2017-10-18T08:57:21.217Z,18336
2017-10-18T08:58:01.764Z,20608
2017-10-18T08:58:42.320Z,20960
2017-10-18T08:59:22.859Z,20640
2017-10-18T09:00:03.398Z,17792
2017-10-18T09:00:43.941Z,23008
2017-10-18T09:01:24.478Z,22368
2017-10-18T09:02:05.019Z,23104
2017-10-18T09:02:45.561Z,25536
2017-10-18T09:03:26.098Z,25312
2017-10-18T09:04:06.721Z,26560
2017-10-18T09:04:47.258Z,26112
2017-10-18T09:05:27.805Z,26336
2017-10-18T09:06:08.346Z,21920
2017-10-18T09:06:48.885Z,19680
2017-10-18T09:07:29.425Z,20704
2017-10-18T09:08:09.970Z,24480
2017-10-18T09:08:50.508Z,24896
2017-10-18T09:09:31.045Z,26304
2017-10-18T09:10:11.586Z,25632
2017-10-18T09:10:52.130Z,23904
2017-10-18T09:11:32.674Z,20320
2017-10-18T09:12:13.213Z,20800
2017-10-18T09:12:53.741Z,21504
2017-10-18T09:13:34.320Z,22112
2017-10-18T09:14:14.852Z,23744
2017-10-18T09:14:55.394Z,24224
2017-10-18T09:15:35.924Z,28448
2017-10-18T09:16:16.468Z,28672
2017-10-18T09:16:57.006Z,28160
2017-10-18T09:17:37.553Z,28032
2017-10-18T09:18:18.111Z,27456
2017-10-18T09:18:58.648Z,27232
2017-10-18T09:19:39.195Z,26688
2017-10-18T09:20:19.736Z,25888
2017-10-18T09:21:00.286Z,25856
2017-10-18T09:21:40.835Z,25856
2017-10-18T09:22:21.403Z,26240
2017-10-18T09:23:01.903Z,26432
2017-10-18T09:23:42.445Z,25728
2017-10-18T09:24:22.987Z,24864
2017-10-18T09:25:03.526Z,22944
2017-10-18T09:25:44.068Z,19616
2017-10-18T09:26:24.613Z,18688
2017-10-18T09:27:05.157Z,18848
2017-10-18T09:27:45.699Z,23104
2017-10-18T09:28:26.242Z,25056
2017-10-18T09:29:06.781Z,25504
2017-10-18T09:29:47.335Z,18560
2017-10-18T09:30:27.873Z,18368
2017-10-18T09:31:08.411Z,16288
2017-10-18T09:31:48.953Z,10580
2017-10-18T09:32:29.497Z,6188
2017-10-18T09:33:10.028Z,5304
2017-10-18T09:33:50.574Z,6036
2017-10-18T09:34:31.122Z,7120
2017-10-18T09:35:11.671Z,14304